Time;durP1;ratioP1;P1;durP2;ratioP2;P2;SDS_P1;SDS_P2;PMS_P1;PMS_P2;Temp;Humidity;BMP_temperature;BMP_pressure;BME280_temperature;BME280_humidity;BME280_pressure;Samples;Min_cycle;Max_cycle;Signal;HPM_P1;HPM_P2
2024/04/02 00:00:42;;;;;;;;;0.00;0.00;;;;;;;;5010970;28;9490;-90
2024/04/02 00:03:09;;;;;;;;;1.00;0.00;;;;;;;;4999306;28;9554;-86
2024/04/02 00:05:37;;;;;;;;;0.00;0.00;;;;;;;;5003202;28;9739;-85
2024/04/02 00:08:06;;;;;;;;;1.25;1.25;;;;;;;;5012700;28;9800;-86
2024/04/02 00:10:34;;;;;;;;;0.00;0.00;;;;;;;;5001805;28;9649;-89
2024/04/02 00:13:01;;;;;;;;;0.00;0.00;;;;;;;;5009970;28;9624;-85
2024/04/02 00:15:28;;;;;;;;;2.50;1.00;;;;;;;;5011487;28;9709;-88
2024/04/02 00:17:55;;;;;;;;;3.00;0.00;;;;;;;;5006785;28;9673;-89
2024/04/02 00:20:23;;;;;;;;;0.25;0.25;;;;;;;;5004330;28;9923;-89
2024/04/02 00:22:49;;;;;;;;;1.00;0.50;;;;;;;;5008610;28;9626;-90
2024/04/02 00:25:18;;;;;;;;;0.00;0.00;;;;;;;;5007528;28;9786;-92
2024/04/02 00:27:47;;;;;;;;;0.00;0.00;;;;;;;;5013316;28;9740;-94
2024/04/02 00:30:24;;;;;;;;;1.00;1.00;;;;;;;;5014325;28;9628;-93
2024/04/02 00:32:51;;;;;;;;;1.00;0.00;;;;;;;;4998840;28;9654;-94
2024/04/02 00:35:19;;;;;;;;;1.00;1.00;;;;;;;;5008471;28;9760;-95
2024/04/02 00:37:46;;;;;;;;;0.00;0.00;;;;;;;;5015443;28;9710;-92
2024/04/02 00:40:16;;;;;;;;;1.00;1.00;;;;;;;;5001345;28;9790;-85
2024/04/02 00:42:45;;;;;;;;;0.75;0.75;;;;;;;;5003480;28;10645;-89
2024/04/02 00:45:12;;;;;;;;;1.00;1.00;;;;;;;;5001283;28;9756;-85
2024/04/02 00:47:40;;;;;;;;;1.00;1.00;;;;;;;;5007597;28;9823;-85
2024/04/02 00:50:07;;;;;;;;;2.00;0.00;;;;;;;;5010841;28;9926;-84
2024/04/02 00:52:34;;;;;;;;;1.00;1.00;;;;;;;;5009958;28;10650;-88
2024/04/02 00:55:02;;;;;;;;;3.00;1.00;;;;;;;;5004338;28;9870;-85
2024/04/02 00:57:30;;;;;;;;;3.50;1.00;;;;;;;;5010179;28;9706;-85
2024/04/02 01:00:00;;;;;;;;;2.00;0.00;;;;;;;;4998839;28;9833;-84
2024/04/02 01:02:27;;;;;;;;;1.00;1.00;;;;;;;;5009527;28;9824;-85
2024/04/02 01:04:53;;;;;;;;;0.00;0.00;;;;;;;;5006503;28;9895;-87
2024/04/02 01:07:21;;;;;;;;;0.50;0.00;;;;;;;;5007907;28;9773;-88
2024/04/02 01:09:47;;;;;;;;;2.50;0.50;;;;;;;;5002175;28;9818;-86
2024/04/02 01:12:17;;;;;;;;;3.50;1.00;;;;;;;;4994803;28;9776;-88
2024/04/02 01:14:44;;;;;;;;;1.25;1.25;;;;;;;;5003002;28;9780;-84
2024/04/02 01:17:16;;;;;;;;;0.50;0.50;;;;;;;;5009112;28;10352;-85
2024/04/02 01:19:42;;;;;;;;;4.00;1.50;;;;;;;;5009728;28;9905;-84
2024/04/02 01:22:09;;;;;;;;;1.00;1.00;;;;;;;;5009131;28;9940;-84
2024/04/02 01:24:35;;;;;;;;;2.00;2.00;;;;;;;;5009932;28;9927;-84
2024/04/02 01:27:04;;;;;;;;;1.00;1.00;;;;;;;;5010596;28;9874;-86
2024/04/02 01:29:31;;;;;;;;;2.50;1.25;;;;;;;;5009799;28;10075;-84
2024/04/02 01:31:58;;;;;;;;;1.00;1.00;;;;;;;;4998275;28;10090;-85
2024/04/02 01:34:24;;;;;;;;;3.00;1.00;;;;;;;;4996258;28;10109;-85
2024/04/02 01:36:51;;;;;;;;;2.00;0.75;;;;;;;;5008895;28;10097;-87
2024/04/02 01:39:18;;;;;;;;;0.00;0.00;;;;;;;;5009669;28;9859;-87
2024/04/02 01:41:48;;;;;;;;;1.75;0.00;;;;;;;;5009195;28;9903;-85
2024/04/02 01:44:16;;;;;;;;;2.00;2.00;;;;;;;;4997768;28;9863;-89
2024/04/02 01:46:46;;;;;;;;;2.50;1.00;;;;;;;;5008241;28;10140;-85
2024/04/02 01:49:12;;;;;;;;;3.50;2.00;;;;;;;;5008533;28;10039;-84
2024/04/02 01:51:39;;;;;;;;;2.25;1.25;;;;;;;;4997880;28;9848;-85
2024/04/02 01:54:06;;;;;;;;;2.50;1.50;;;;;;;;4998153;28;10042;-86
2024/04/02 01:56:35;;;;;;;;;1.50;0.00;;;;;;;;5009858;28;10871;-87
2024/04/02 01:59:05;;;;;;;;;0.75;0.75;;;;;;;;4997698;28;9775;-85
2024/04/02 02:01:34;;;;;;;;;2.25;2.25;;;;;;;;4997465;28;9889;-89
2024/04/02 02:04:00;;;;;;;;;1.50;1.50;;;;;;;;5008592;28;10056;-87
2024/04/02 02:06:27;;;;;;;;;1.00;1.00;;;;;;;;4996774;28;10227;-88
2024/04/02 02:08:53;;;;;;;;;1.25;1.25;;;;;;;;5014065;28;10141;-85
2024/04/02 02:11:21;;;;;;;;;1.00;1.00;;;;;;;;5014684;28;9945;-89
2024/04/02 02:13:47;;;;;;;;;4.00;1.00;;;;;;;;5006922;28;9958;-92
2024/04/02 02:16:15;;;;;;;;;1.25;1.25;;;;;;;;5017165;28;9968;-91
2024/04/02 02:18:49;;;;;;;;;2.75;1.00;;;;;;;;5017658;28;10091;-92
2024/04/02 02:21:16;;;;;;;;;1.00;1.00;;;;;;;;5010334;28;9950;-88
2024/04/02 02:23:45;;;;;;;;;1.25;1.25;;;;;;;;5010036;28;9949;-93
2024/04/02 02:26:12;;;;;;;;;0.00;0.00;;;;;;;;5016144;28;9954;-89
2024/04/02 02:28:39;;;;;;;;;1.00;1.00;;;;;;;;5007969;28;9781;-83
2024/04/02 02:31:07;;;;;;;;;1.00;1.00;;;;;;;;5009348;28;9816;-84
2024/04/02 02:33:35;;;;;;;;;2.00;2.00;;;;;;;;5006789;28;9969;-83
2024/04/02 02:36:05;;;;;;;;;1.50;1.50;;;;;;;;5013408;28;10040;-87
2024/04/02 02:38:31;;;;;;;;;3.50;2.50;;;;;;;;5013856;28;10030;-84
2024/04/02 02:41:01;;;;;;;;;3.00;2.00;;;;;;;;5008229;28;10138;-88
2024/04/02 02:43:28;;;;;;;;;3.00;2.00;;;;;;;;5006495;28;10087;-84
2024/04/02 02:45:55;;;;;;;;;2.75;2.75;;;;;;;;5006323;28;10070;-87
2024/04/02 02:48:21;;;;;;;;;3.00;3.00;;;;;;;;5007077;28;10039;-88
2024/04/02 02:50:49;;;;;;;;;2.50;1.75;;;;;;;;5000685;28;10029;-88
2024/04/02 02:53:22;;;;;;;;;2.75;1.00;;;;;;;;5013271;28;10074;-90
2024/04/02 02:55:58;;;;;;;;;1.50;1.50;;;;;;;;5011735;28;9972;-85
2024/04/02 02:58:26;;;;;;;;;2.75;1.75;;;;;;;;5001297;28;10034;-84
2024/04/02 03:00:53;;;;;;;;;2.00;2.00;;;;;;;;5014510;28;9961;-84
2024/04/02 03:03:20;;;;;;;;;3.25;2.00;;;;;;;;5010770;28;10126;-86
2024/04/02 03:05:54;;;;;;;;;1.00;1.00;;;;;;;;5004772;28;10184;-88
2024/04/02 03:08:23;;;;;;;;;1.00;1.00;;;;;;;;4999977;28;10644;-84
2024/04/02 03:10:57;;;;;;;;;2.00;2.00;;;;;;;;5012788;28;10007;-86
2024/04/02 03:13:25;;;;;;;;;3.50;3.00;;;;;;;;5006690;28;10153;-87
2024/04/02 03:15:52;;;;;;;;;1.75;1.00;;;;;;;;5004070;28;10125;-84
2024/04/02 03:18:18;;;;;;;;;2.75;2.25;;;;;;;;5011630;28;10164;-85
2024/04/02 03:20:49;;;;;;;;;3.50;0.75;;;;;;;;4999967;28;11065;-84
2024/04/02 03:23:16;;;;;;;;;1.75;1.75;;;;;;;;4993265;28;10069;-86
2024/04/02 03:25:52;;;;;;;;;1.00;1.00;;;;;;;;5008559;28;9944;-87
2024/04/02 03:28:19;;;;;;;;;1.50;1.00;;;;;;;;5013798;28;9946;-86
2024/04/02 03:30:46;;;;;;;;;1.00;1.00;;;;;;;;5010671;28;9859;-86
2024/04/02 03:33:16;;;;;;;;;1.25;1.00;;;;;;;;4992854;28;9871;-85
2024/04/02 03:35:45;;;;;;;;;3.50;1.50;;;;;;;;5008035;28;9899;-87
2024/04/02 03:38:17;;;;;;;;;3.75;2.00;;;;;;;;5011916;28;9991;-90
2024/04/02 03:40:48;;;;;;;;;1.00;1.00;;;;;;;;5011655;28;9982;-86
2024/04/02 03:43:15;;;;;;;;;2.50;1.00;;;;;;;;5012270;28;9942;-88
2024/04/02 03:45:43;;;;;;;;;5.00;1.00;;;;;;;;5011584;28;9859;-89
2024/04/02 03:48:12;;;;;;;;;0.25;0.25;;;;;;;;5010459;28;9962;-90
2024/04/02 03:50:40;;;;;;;;;1.75;1.75;;;;;;;;5009875;28;9866;-90
2024/04/02 03:53:06;;;;;;;;;1.00;1.00;;;;;;;;5011635;28;10134;-88
2024/04/02 03:55:35;;;;;;;;;4.00;1.00;;;;;;;;4998769;28;9882;-88
2024/04/02 03:58:03;;;;;;;;;3.50;1.75;;;;;;;;5011515;28;9941;-89
2024/04/02 04:00:30;;;;;;;;;1.50;1.50;;;;;;;;4994840;28;9842;-86
2024/04/02 04:02:58;;;;;;;;;2.00;1.00;;;;;;;;5000306;28;9892;-94
2024/04/02 04:05:25;;;;;;;;;5.25;1.75;;;;;;;;5004915;28;9892;-94
2024/04/02 04:07:51;;;;;;;;;5.00;0.50;;;;;;;;5021611;28;9974;-91
2024/04/02 04:10:19;;;;;;;;;3.00;1.00;;;;;;;;5019791;28;9853;-90
2024/04/02 04:12:45;;;;;;;;;1.75;1.00;;;;;;;;5018218;28;9932;-92
2024/04/02 04:15:17;;;;;;;;;0.75;0.75;;;;;;;;5010416;28;9969;-87
2024/04/02 04:17:46;;;;;;;;;1.75;1.75;;;;;;;;5006253;28;9979;-85
2024/04/02 04:20:14;;;;;;;;;0.00;0.00;;;;;;;;5011550;28;9872;-84
2024/04/02 04:22:40;;;;;;;;;4.00;2.00;;;;;;;;5008655;28;9894;-86
2024/04/02 04:25:08;;;;;;;;;1.00;1.00;;;;;;;;5000155;28;10707;-86
2024/04/02 04:27:37;;;;;;;;;1.00;1.00;;;;;;;;5009868;28;9979;-86
2024/04/02 04:30:05;;;;;;;;;2.25;1.00;;;;;;;;5010951;28;9868;-87
2024/04/02 04:32:37;;;;;;;;;4.00;1.00;;;;;;;;5009926;28;9845;-84
2024/04/02 04:35:04;;;;;;;;;1.25;1.25;;;;;;;;5010424;28;9970;-84
2024/04/02 04:37:32;;;;;;;;;3.00;0.00;;;;;;;;4996950;28;9790;-95
2024/04/02 04:39:58;;;;;;;;;0.50;0.50;;;;;;;;5004248;28;9812;-91
2024/04/02 04:42:26;;;;;;;;;2.25;1.00;;;;;;;;5012936;28;9849;-87
2024/04/02 04:44:52;;;;;;;;;2.50;1.00;;;;;;;;5015817;28;9889;-85
2024/04/02 04:47:20;;;;;;;;;1.00;1.00;;;;;;;;5007211;28;9955;-91
2024/04/02 04:49:47;;;;;;;;;1.00;1.00;;;;;;;;5000980;28;9903;-85
2024/04/02 04:52:17;;;;;;;;;1.75;1.75;;;;;;;;5006234;28;9938;-87
2024/04/02 04:54:44;;;;;;;;;3.50;2.00;;;;;;;;5005275;28;10078;-93
2024/04/02 04:57:11;;;;;;;;;0.00;0.00;;;;;;;;5003700;28;9860;-84
2024/04/02 04:59:37;;;;;;;;;2.25;1.00;;;;;;;;5003560;28;9860;-84
2024/04/02 05:02:05;;;;;;;;;2.25;1.00;;;;;;;;5003868;28;9802;-88
2024/04/02 05:04:31;;;;;;;;;1.00;1.00;;;;;;;;5001951;28;9873;-85
2024/04/02 05:07:00;;;;;;;;;2.00;1.25;;;;;;;;4992305;28;10044;-92
2024/04/02 05:09:26;;;;;;;;;1.00;1.00;;;;;;;;4991140;28;9982;-87
2024/04/02 05:11:53;;;;;;;;;1.00;1.00;;;;;;;;4991943;28;9954;-88
2024/04/02 05:14:19;;;;;;;;;3.00;2.00;;;;;;;;5002635;28;10646;-74
2024/04/02 05:16:47;;;;;;;;;4.50;1.00;;;;;;;;4996850;28;10058;-74
2024/04/02 05:19:13;;;;;;;;;3.00;1.25;;;;;;;;5006901;28;9803;-75
2024/04/02 05:21:40;;;;;;;;;1.00;1.00;;;;;;;;5007694;28;9889;-75
2024/04/02 05:24:08;;;;;;;;;2.00;0.00;;;;;;;;4996989;28;9985;-75
2024/04/02 05:26:36;;;;;;;;;1.00;1.00;;;;;;;;4991928;28;10380;-74
2024/04/02 05:29:02;;;;;;;;;4.50;1.75;;;;;;;;5003083;28;9880;-74
2024/04/02 05:31:31;;;;;;;;;0.00;0.00;;;;;;;;4990814;28;10069;-75
2024/04/02 05:34:00;;;;;;;;;1.00;1.00;;;;;;;;5003379;28;9815;-75
2024/04/02 05:36:27;;;;;;;;;2.25;1.00;;;;;;;;4997865;28;9871;-75
2024/04/02 05:38:53;;;;;;;;;1.00;1.00;;;;;;;;4997005;28;9953;-75
2024/04/02 05:41:22;;;;;;;;;4.00;1.00;;;;;;;;5008143;28;9868;-75
2024/04/02 05:43:50;;;;;;;;;1.00;0.25;;;;;;;;5006189;28;9918;-76
2024/04/02 05:46:17;;;;;;;;;1.00;1.00;;;;;;;;4998378;28;9875;-77
2024/04/02 05:48:45;;;;;;;;;1.50;0.25;;;;;;;;4997368;28;9806;-76
2024/04/02 05:51:13;;;;;;;;;2.50;1.00;;;;;;;;5008600;28;9960;-75
2024/04/02 05:53:39;;;;;;;;;1.75;1.75;;;;;;;;5006723;28;9858;-75
2024/04/02 05:56:06;;;;;;;;;3.75;1.50;;;;;;;;5000846;28;10134;-75
2024/04/02 05:58:34;;;;;;;;;2.00;0.00;;;;;;;;4995265;28;10077;-76
2024/04/02 06:01:05;;;;;;;;;1.25;1.00;;;;;;;;5000640;28;9871;-75
2024/04/02 06:03:32;;;;;;;;;3.50;0.00;;;;;;;;4997508;28;9833;-76
2024/04/02 06:05:59;;;;;;;;;2.50;1.00;;;;;;;;4999046;28;9893;-76
2024/04/02 06:08:25;;;;;;;;;1.00;1.00;;;;;;;;5006182;28;9823;-76
2024/04/02 06:10:52;;;;;;;;;5.25;2.00;;;;;;;;5007604;28;9773;-76
2024/04/02 06:13:19;;;;;;;;;1.25;1.00;;;;;;;;5003517;28;9941;-76
2024/04/02 06:15:47;;;;;;;;;2.25;2.25;;;;;;;;5000651;28;9923;-75
2024/04/02 06:18:16;;;;;;;;;0.25;0.25;;;;;;;;5003854;28;9865;-75
2024/04/02 06:20:46;;;;;;;;;1.00;1.00;;;;;;;;4999830;28;10598;-75
2024/04/02 06:23:12;;;;;;;;;1.50;1.50;;;;;;;;4996226;28;9922;-76
2024/04/02 06:25:39;;;;;;;;;2.25;0.00;;;;;;;;5006564;28;9815;-75
2024/04/02 06:28:08;;;;;;;;;0.00;0.00;;;;;;;;5001242;28;10001;-75
2024/04/02 06:30:38;;;;;;;;;1.75;1.00;;;;;;;;4991099;28;9637;-76
2024/04/02 06:33:08;;;;;;;;;1.75;0.50;;;;;;;;5003144;28;9825;-74
2024/04/02 06:35:36;;;;;;;;;0.50;0.50;;;;;;;;4993720;28;9712;-76
2024/04/02 06:38:02;;;;;;;;;2.75;1.00;;;;;;;;4996862;28;9807;-76
2024/04/02 06:40:31;;;;;;;;;1.75;1.00;;;;;;;;4996058;28;9846;-76
2024/04/02 06:42:58;;;;;;;;;4.00;1.00;;;;;;;;4996973;28;9696;-75
2024/04/02 06:45:26;;;;;;;;;2.50;2.00;;;;;;;;5006684;28;9789;-76
2024/04/02 06:47:52;;;;;;;;;2.00;0.75;;;;;;;;4997561;28;9855;-78
2024/04/02 06:50:23;;;;;;;;;1.00;1.00;;;;;;;;5006181;28;9692;-76
2024/04/02 06:52:49;;;;;;;;;1.00;1.00;;;;;;;;4999408;28;9944;-74
2024/04/02 06:55:16;;;;;;;;;2.00;1.00;;;;;;;;5003572;28;9622;-75
2024/04/02 06:57:42;;;;;;;;;4.00;1.00;;;;;;;;5008041;28;9779;-76
2024/04/02 07:00:11;;;;;;;;;3.00;1.00;;;;;;;;4997895;28;9708;-76
2024/04/02 07:02:37;;;;;;;;;2.00;1.25;;;;;;;;5010641;28;9656;-81
2024/04/02 07:05:05;;;;;;;;;3.00;2.00;;;;;;;;5008674;28;9581;-75
2024/04/02 07:07:33;;;;;;;;;0.00;0.00;;;;;;;;5010507;28;10304;-74
2024/04/02 07:10:00;;;;;;;;;3.00;1.00;;;;;;;;4997546;28;9495;-75
2024/04/02 07:12:26;;;;;;;;;0.75;0.75;;;;;;;;5000040;28;9478;-76
2024/04/02 07:14:53;;;;;;;;;1.00;1.00;;;;;;;;5009358;28;9484;-75
2024/04/02 07:17:20;;;;;;;;;2.50;2.00;;;;;;;;5015875;28;9619;-75
2024/04/02 07:19:47;;;;;;;;;1.00;0.00;;;;;;;;5011624;28;9753;-75
2024/04/02 07:22:16;;;;;;;;;1.00;0.00;;;;;;;;5010782;28;9565;-75
2024/04/02 07:24:45;;;;;;;;;2.00;0.50;;;;;;;;5009835;28;9474;-76
2024/04/02 07:27:13;;;;;;;;;1.00;1.00;;;;;;;;5010291;28;9620;-75
2024/04/02 07:29:40;;;;;;;;;1.00;0.00;;;;;;;;5009334;28;9572;-75
2024/04/02 07:32:08;;;;;;;;;4.25;2.75;;;;;;;;4998017;28;9585;-76
2024/04/02 07:34:34;;;;;;;;;1.75;1.75;;;;;;;;5003938;28;9565;-76
2024/04/02 07:37:01;;;;;;;;;2.00;2.00;;;;;;;;5003441;28;9610;-75
2024/04/02 07:39:27;;;;;;;;;1.00;1.00;;;;;;;;5009921;28;9761;-76
2024/04/02 07:41:56;;;;;;;;;1.00;1.00;;;;;;;;5010263;28;9694;-76
2024/04/02 07:44:22;;;;;;;;;1.00;0.00;;;;;;;;4997647;28;9960;-76
2024/04/02 07:46:51;;;;;;;;;0.75;0.75;;;;;;;;5010041;28;9573;-76
2024/04/02 07:49:17;;;;;;;;;1.25;1.00;;;;;;;;5011095;28;9549;-76
2024/04/02 07:51:47;;;;;;;;;2.00;2.00;;;;;;;;5009931;28;9578;-75
2024/04/02 07:54:16;;;;;;;;;3.00;2.00;;;;;;;;4999613;28;9634;-76
2024/04/02 07:56:43;;;;;;;;;4.00;3.00;;;;;;;;5009429;28;9548;-77
2024/04/02 07:59:11;;;;;;;;;2.00;2.00;;;;;;;;4991489;28;9793;-76
2024/04/02 08:01:41;;;;;;;;;2.75;2.75;;;;;;;;4993517;28;9811;-76
2024/04/02 08:04:10;;;;;;;;;4.00;2.00;;;;;;;;5010148;28;9733;-75
2024/04/02 08:06:37;;;;;;;;;1.25;1.00;;;;;;;;4996604;28;9878;-76
2024/04/02 08:09:03;;;;;;;;;2.25;2.25;;;;;;;;4999748;28;9548;-75
2024/04/02 08:11:30;;;;;;;;;1.25;1.25;;;;;;;;5006311;28;9566;-76
2024/04/02 08:13:56;;;;;;;;;3.25;2.25;;;;;;;;5009449;28;9420;-76
2024/04/02 08:16:26;;;;;;;;;2.50;2.00;;;;;;;;5005641;28;9465;-76
2024/04/02 08:18:52;;;;;;;;;3.00;1.75;;;;;;;;5001387;28;9637;-77
2024/04/02 08:21:19;;;;;;;;;1.50;1.50;;;;;;;;5005537;28;9542;-76
2024/04/02 08:23:45;;;;;;;;;1.00;1.00;;;;;;;;4992327;28;9778;-75
2024/04/02 08:26:12;;;;;;;;;4.00;2.67;;;;;;;;4996938;28;9494;-76
2024/04/02 08:28:39;;;;;;;;;3.00;1.00;;;;;;;;5008865;28;9433;-76
2024/04/02 08:31:06;;;;;;;;;1.00;1.00;;;;;;;;4997249;28;9407;-76
2024/04/02 08:33:34;;;;;;;;;2.00;2.00;;;;;;;;4997746;28;10093;-76
2024/04/02 08:36:01;;;;;;;;;0.67;0.67;;;;;;;;5008720;28;9270;-77
2024/04/02 08:38:29;;;;;;;;;4.67;3.00;;;;;;;;5009230;28;9171;-77
2024/04/02 08:41:03;;;;;;;;;1.00;1.00;;;;;;;;4996568;28;9331;-77
2024/04/02 08:43:30;;;;;;;;;0.33;0.33;;;;;;;;5008864;28;9263;-77
2024/04/02 08:45:58;;;;;;;;;2.00;2.00;;;;;;;;5007939;28;9094;-78
2024/04/02 08:48:25;;;;;;;;;1.00;1.00;;;;;;;;5008584;28;9308;-77
2024/04/02 08:50:55;;;;;;;;;2.33;2.00;;;;;;;;4997677;28;9426;-77
2024/04/02 08:53:22;;;;;;;;;3.00;1.00;;;;;;;;5008512;28;9111;-76
2024/04/02 08:55:49;;;;;;;;;1.00;1.00;;;;;;;;5008163;28;9098;-75
2024/04/02 08:58:19;;;;;;;;;3.00;3.00;;;;;;;;4995778;28;9091;-77
2024/04/02 09:00:46;;;;;;;;;3.25;2.00;;;;;;;;5007646;28;8792;-77
2024/04/02 09:03:16;;;;;;;;;4.75;3.75;;;;;;;;5007964;28;8973;-77
2024/04/02 09:05:46;;;;;;;;;1.67;1.00;;;;;;;;4998809;28;8858;-77
2024/04/02 09:08:14;;;;;;;;;0.75;0.75;;;;;;;;5002998;28;8857;-77
2024/04/02 09:10:44;;;;;;;;;3.00;1.75;;;;;;;;4989873;28;8867;-76
2024/04/02 09:13:10;;;;;;;;;1.75;1.75;;;;;;;;5003095;28;9479;-76
2024/04/02 09:15:37;;;;;;;;;1.00;1.00;;;;;;;;5000300;28;8840;-75
2024/04/02 09:18:04;;;;;;;;;1.50;1.50;;;;;;;;5008177;28;8845;-76
2024/04/02 09:20:33;;;;;;;;;3.00;3.00;;;;;;;;5007971;28;8868;-76
2024/04/02 09:22:59;;;;;;;;;0.25;0.25;;;;;;;;5008496;28;8918;-76
2024/04/02 09:25:31;;;;;;;;;4.50;3.00;;;;;;;;5009134;28;8982;-76
2024/04/02 09:27:57;;;;;;;;;4.00;2.25;;;;;;;;5008434;28;8856;-76
2024/04/02 09:30:26;;;;;;;;;2.50;1.50;;;;;;;;5008463;28;8740;-76
2024/04/02 09:32:52;;;;;;;;;1.00;1.00;;;;;;;;4992597;28;8901;-76
2024/04/02 09:35:28;;;;;;;;;1.50;1.50;;;;;;;;5003528;28;8911;-76
2024/04/02 09:37:56;;;;;;;;;1.50;1.50;;;;;;;;4999060;28;8868;-75
2024/04/02 09:40:24;;;;;;;;;1.00;1.00;;;;;;;;4997818;28;8839;-75
2024/04/02 09:42:53;;;;;;;;;2.00;0.75;;;;;;;;5009914;28;8926;-75
2024/04/02 09:45:21;;;;;;;;;3.25;1.75;;;;;;;;5008205;28;8847;-76
2024/04/02 09:47:48;;;;;;;;;0.75;0.75;;;;;;;;4998363;28;8887;-77
2024/04/02 09:50:16;;;;;;;;;1.75;1.75;;;;;;;;4997471;28;8894;-75
2024/04/02 09:52:44;;;;;;;;;1.25;1.25;;;;;;;;5008837;28;8984;-76
2024/04/02 09:55:11;;;;;;;;;1.00;1.00;;;;;;;;5007634;28;8869;-76
2024/04/02 09:57:38;;;;;;;;;1.00;1.00;;;;;;;;5008182;28;8995;-76
2024/04/02 10:00:07;;;;;;;;;1.00;1.00;;;;;;;;4994052;28;8840;-75
2024/04/02 10:02:35;;;;;;;;;3.00;1.25;;;;;;;;4977484;28;8850;-76
2024/04/02 10:05:01;;;;;;;;;0.75;0.75;;;;;;;;4974130;28;8891;-76
2024/04/02 10:07:29;;;;;;;;;1.50;1.50;;;;;;;;4978883;28;8858;-76
2024/04/02 10:10:00;;;;;;;;;0.75;0.75;;;;;;;;4988155;28;8859;-74
2024/04/02 10:12:31;;;;;;;;;1.00;1.00;;;;;;;;4988990;28;8881;-77
2024/04/02 10:15:02;;;;;;;;;2.50;1.00;;;;;;;;4994896;28;8885;-78
2024/04/02 10:17:31;;;;;;;;;1.25;1.00;;;;;;;;4978640;28;8968;-75
2024/04/02 10:19:57;;;;;;;;;1.00;1.00;;;;;;;;4982918;28;8853;-78
2024/04/02 10:22:28;;;;;;;;;4.00;1.00;;;;;;;;4981551;28;8889;-76
2024/04/02 10:25:06;;;;;;;;;2.50;1.00;;;;;;;;4976255;28;8905;-78
2024/04/02 10:27:36;;;;;;;;;0.00;0.00;;;;;;;;4985765;28;9741;-76
2024/04/02 10:30:17;;;;;;;;;1.75;1.25;;;;;;;;4968867;28;9719;-76
2024/04/02 10:32:46;;;;;;;;;1.00;1.00;;;;;;;;4987639;28;8897;-77
2024/04/02 10:35:19;;;;;;;;;0.00;0.00;;;;;;;;4991606;28;9618;-74
2024/04/02 10:37:47;;;;;;;;;2.75;0.00;;;;;;;;4979570;28;8970;-76
2024/04/02 10:40:16;;;;;;;;;2.50;1.00;;;;;;;;4991786;28;8874;-77
2024/04/02 10:42:45;;;;;;;;;3.00;2.25;;;;;;;;4984568;28;8886;-76
2024/04/02 10:45:12;;;;;;;;;1.75;1.00;;;;;;;;4985643;28;8873;-75
2024/04/02 10:47:47;;;;;;;;;3.50;1.75;;;;;;;;4979489;28;9001;-78
2024/04/02 10:50:17;;;;;;;;;2.00;0.00;;;;;;;;4990955;28;8893;-76
2024/04/02 10:52:47;;;;;;;;;1.25;1.00;;;;;;;;4991484;28;8887;-76
2024/04/02 10:55:16;;;;;;;;;2.50;1.00;;;;;;;;4991451;28;9680;-76
2024/04/02 10:57:44;;;;;;;;;0.00;0.00;;;;;;;;4982426;28;8854;-77
2024/04/02 11:00:16;;;;;;;;;0.00;0.00;;;;;;;;4988169;28;8859;-76
2024/04/02 11:02:45;;;;;;;;;0.50;0.00;;;;;;;;4991609;28;8889;-76
2024/04/02 11:05:13;;;;;;;;;1.00;1.00;;;;;;;;4990740;28;8873;-75
2024/04/02 11:07:45;;;;;;;;;0.00;0.00;;;;;;;;4990938;28;8867;-76
2024/04/02 11:10:11;;;;;;;;;2.50;1.25;;;;;;;;4991066;28;8851;-75
2024/04/02 11:12:39;;;;;;;;;1.00;0.00;;;;;;;;4991146;28;8858;-74
2024/04/02 11:15:08;;;;;;;;;1.00;0.50;;;;;;;;4977904;28;8859;-74
2024/04/02 11:17:35;;;;;;;;;1.00;1.00;;;;;;;;4990510;28;8880;-74
2024/04/02 11:20:09;;;;;;;;;1.00;0.00;;;;;;;;4979243;28;8997;-74
2024/04/02 11:25:22;;;;;;;;;1.00;1.00;;;;;;;;4992260;28;9636;-75
2024/04/02 11:27:49;;;;;;;;;0.00;0.00;;;;;;;;4991487;28;8865;-75
2024/04/02 11:30:20;;;;;;;;;2.75;2.75;;;;;;;;4994464;28;8866;-75
2024/04/02 11:32:46;;;;;;;;;1.00;1.00;;;;;;;;5012984;28;8888;-75
2024/04/02 11:35:17;;;;;;;;;1.75;0.00;;;;;;;;5011913;28;8876;-74
2024/04/02 11:37:44;;;;;;;;;4.00;2.00;;;;;;;;5010151;28;8872;-74
2024/04/02 11:40:16;;;;;;;;;0.00;0.00;;;;;;;;5010883;28;9618;-76
2024/04/02 11:42:46;;;;;;;;;1.50;0.00;;;;;;;;5010314;28;8868;-75
2024/04/02 11:45:14;;;;;;;;;0.00;0.00;;;;;;;;5009711;28;8852;-75
2024/04/02 11:47:40;;;;;;;;;2.00;1.00;;;;;;;;5010161;28;8955;-75
2024/04/02 11:50:08;;;;;;;;;2.00;0.00;;;;;;;;5010025;28;8959;-75
2024/04/02 11:52:37;;;;;;;;;3.00;0.00;;;;;;;;5009486;28;9039;-74
2024/04/02 11:55:05;;;;;;;;;0.00;0.00;;;;;;;;5009532;28;8852;-74
2024/04/02 12:00:17;;;;;;;;;0.50;0.00;;;;;;;;4993108;28;8835;-74
2024/04/02 12:02:47;;;;;;;;;2.75;0.25;;;;;;;;5001465;28;8946;-75
2024/04/02 12:05:22;;;;;;;;;0.50;0.00;;;;;;;;4997801;28;8963;-75
2024/04/02 12:07:50;;;;;;;;;1.00;1.00;;;;;;;;5009108;28;8848;-75
2024/04/02 12:10:19;;;;;;;;;0.25;0.00;;;;;;;;5007965;28;9002;-74
2024/04/02 12:12:45;;;;;;;;;0.00;0.00;;;;;;;;5009155;28;8876;-74
2024/04/02 12:15:15;;;;;;;;;0.75;0.75;;;;;;;;5003785;28;8855;-75
2024/04/02 12:17:41;;;;;;;;;0.75;0.25;;;;;;;;5007737;28;9679;-75
2024/04/02 12:20:12;;;;;;;;;0.00;0.00;;;;;;;;5010302;28;8895;-75
2024/04/02 12:22:38;;;;;;;;;1.75;0.00;;;;;;;;5008768;28;8900;-74
2024/04/02 12:25:07;;;;;;;;;2.00;0.00;;;;;;;;5002538;28;8862;-75
2024/04/02 12:27:33;;;;;;;;;0.00;0.00;;;;;;;;5004581;28;8860;-75
2024/04/02 12:30:04;;;;;;;;;1.00;0.00;;;;;;;;5008834;28;9611;-75
2024/04/02 12:32:32;;;;;;;;;0.60;0.60;;;;;;;;5007658;28;8824;-76
2024/04/02 12:34:59;;;;;;;;;0.00;0.00;;;;;;;;5008851;28;8868;-75
2024/04/02 12:37:26;;;;;;;;;0.00;0.00;;;;;;;;5008403;28;8853;-74
2024/04/02 12:39:53;;;;;;;;;0.50;0.00;;;;;;;;5000683;28;8859;-73
2024/04/02 12:42:21;;;;;;;;;0.00;0.00;;;;;;;;5006634;28;8848;-74
2024/04/02 12:44:48;;;;;;;;;0.80;0.00;;;;;;;;5008396;28;8845;-74
2024/04/02 12:47:24;;;;;;;;;0.00;0.00;;;;;;;;5005844;28;8872;-74
2024/04/02 12:49:51;;;;;;;;;0.00;0.00;;;;;;;;4991791;28;8879;-74
2024/04/02 12:52:19;;;;;;;;;0.00;0.00;;;;;;;;4998108;28;8860;-74
2024/04/02 12:54:46;;;;;;;;;2.00;0.00;;;;;;;;4998136;28;8874;-74
2024/04/02 12:57:15;;;;;;;;;1.00;0.00;;;;;;;;5003321;28;8869;-75
2024/04/02 12:59:46;;;;;;;;;0.80;0.00;;;;;;;;5002752;28;8860;-75
2024/04/02 13:02:15;;;;;;;;;0.60;0.00;;;;;;;;5002171;28;8811;-75
2024/04/02 13:04:42;;;;;;;;;0.00;0.00;;;;;;;;4992674;28;8851;-75
2024/04/02 13:07:10;;;;;;;;;0.00;0.00;;;;;;;;4997317;28;8871;-74
2024/04/02 13:09:37;;;;;;;;;0.00;0.00;;;;;;;;5008420;28;8971;-74
2024/04/02 13:12:04;;;;;;;;;0.20;0.20;;;;;;;;5002019;28;9784;-74
2024/04/02 13:14:33;;;;;;;;;0.00;0.00;;;;;;;;5004480;28;8844;-75
2024/04/02 13:20:27;;;;;;;;;0.00;0.00;;;;;;;;5000582;28;8828;-74
2024/04/02 13:22:53;;;;;;;;;3.00;0.00;;;;;;;;5009708;28;8902;-75
2024/04/02 13:25:21;;;;;;;;;0.00;0.00;;;;;;;;5010655;28;8873;-74
2024/04/02 13:27:47;;;;;;;;;0.00;0.00;;;;;;;;5007584;28;8852;-75
2024/04/02 13:30:16;;;;;;;;;1.25;0.00;;;;;;;;5008101;28;8864;-74
2024/04/02 13:32:43;;;;;;;;;0.00;0.00;;;;;;;;4996732;28;8939;-74
2024/04/02 13:35:10;;;;;;;;;0.60;0.60;;;;;;;;5007794;28;8852;-75
2024/04/02 13:37:38;;;;;;;;;0.20;0.00;;;;;;;;4993041;28;8967;-74
2024/04/02 13:40:06;;;;;;;;;0.00;0.00;;;;;;;;5001502;28;9661;-74
2024/04/02 13:42:32;;;;;;;;;2.00;0.50;;;;;;;;5006787;28;8836;-74
2024/04/02 13:44:59;;;;;;;;;1.25;0.00;;;;;;;;5007420;28;8894;-74
2024/04/02 13:47:26;;;;;;;;;0.00;0.00;;;;;;;;5006718;28;8828;-75
2024/04/02 13:49:53;;;;;;;;;0.00;0.00;;;;;;;;5007084;28;8860;-73
2024/04/02 13:52:19;;;;;;;;;0.75;0.00;;;;;;;;5007120;28;9638;-74
2024/04/02 13:54:48;;;;;;;;;0.50;0.50;;;;;;;;5007173;28;8872;-75
2024/04/02 13:57:15;;;;;;;;;0.00;0.00;;;;;;;;5002310;28;8851;-75
2024/04/02 13:59:43;;;;;;;;;0.25;0.00;;;;;;;;5001461;28;8852;-74
2024/04/02 14:02:09;;;;;;;;;0.00;0.00;;;;;;;;5006119;28;8812;-75
2024/04/02 14:04:41;;;;;;;;;0.25;0.25;;;;;;;;4996959;28;9042;-74
2024/04/02 14:07:07;;;;;;;;;0.00;0.00;;;;;;;;5008931;28;8832;-75
2024/04/02 14:09:34;;;;;;;;;0.00;0.00;;;;;;;;5000233;28;8941;-75
2024/04/02 14:12:05;;;;;;;;;0.00;0.00;;;;;;;;5000275;28;8852;-75
2024/04/02 14:14:32;;;;;;;;;1.00;0.00;;;;;;;;5011246;28;8855;-75
2024/04/02 14:16:59;;;;;;;;;0.50;0.00;;;;;;;;5001133;28;8876;-75
2024/04/02 14:19:26;;;;;;;;;0.00;0.00;;;;;;;;5010405;28;8978;-75
2024/04/02 14:21:53;;;;;;;;;0.00;0.00;;;;;;;;4993762;28;8897;-75
2024/04/02 14:24:20;;;;;;;;;0.00;0.00;;;;;;;;5006934;28;8828;-74
2024/04/02 14:26:46;;;;;;;;;0.00;0.00;;;;;;;;5003814;28;8871;-74
2024/04/02 14:29:16;;;;;;;;;0.00;0.00;;;;;;;;4995241;28;10035;-75
2024/04/02 14:31:42;;;;;;;;;1.00;0.00;;;;;;;;5001584;28;9462;-75
2024/04/02 14:34:09;;;;;;;;;0.00;0.00;;;;;;;;4997062;28;8866;-74
2024/04/02 14:36:35;;;;;;;;;0.00;0.00;;;;;;;;5002045;28;9545;-75
2024/04/02 14:39:02;;;;;;;;;0.00;0.00;;;;;;;;4996947;28;8844;-75
2024/04/02 14:41:30;;;;;;;;;0.00;0.00;;;;;;;;5002716;28;8849;-75
2024/04/02 14:43:57;;;;;;;;;0.00;0.00;;;;;;;;5013334;28;8998;-74
2024/04/02 14:46:25;;;;;;;;;0.00;0.00;;;;;;;;5002641;28;8866;-76
2024/04/02 14:48:52;;;;;;;;;0.00;0.00;;;;;;;;5006312;28;8837;-74
2024/04/02 14:51:18;;;;;;;;;0.00;0.00;;;;;;;;5003557;28;8845;-74
2024/04/02 14:53:46;;;;;;;;;0.00;0.00;;;;;;;;5010916;28;8848;-74
2024/04/02 14:56:12;;;;;;;;;0.00;0.00;;;;;;;;5011226;28;8864;-74
2024/04/02 14:58:39;;;;;;;;;0.00;0.00;;;;;;;;4995423;28;8933;-74
2024/04/02 15:01:07;;;;;;;;;1.00;0.00;;;;;;;;5002699;28;8804;-74
2024/04/02 15:03:36;;;;;;;;;1.00;0.00;;;;;;;;5011042;28;8848;-74
2024/04/02 15:06:09;;;;;;;;;0.00;0.00;;;;;;;;5010243;28;9012;-75
2024/04/02 15:08:36;;;;;;;;;0.00;0.00;;;;;;;;5009894;28;8852;-74